sensor_id;sensor_type;location;lat;lon;timestamp;temperature;humidity
21244;DHT22;10780;50.942;4.028;2023-01-24T00:00:53;4.50;99.90
21244;DHT22;10780;50.942;4.028;2023-01-24T00:03:20;4.60;99.90
21244;DHT22;10780;50.942;4.028;2023-01-24T00:05:46;4.50;99.90
21244;DHT22;10780;50.942;4.028;2023-01-24T00:08:14;4.40;99.90
21244;DHT22;10780;50.942;4.028;2023-01-24T00:10:41;4.40;99.90
21244;DHT22;10780;50.942;4.028;2023-01-24T00:13:10;4.40;99.90
21244;DHT22;10780;50.942;4.028;2023-01-24T00:15:37;4.50;99.90
21244;DHT22;10780;50.942;4.028;2023-01-24T00:18:02;4.50;99.90
21244;DHT22;10780;50.942;4.028;2023-01-24T00:20:28;4.60;99.90
21244;DHT22;10780;50.942;4.028;2023-01-24T00:22:54;4.50;99.90
21244;DHT22;10780;50.942;4.028;2023-01-24T00:25:19;4.50;99.90
21244;DHT22;10780;50.942;4.028;2023-01-24T00:27:45;4.50;99.90
21244;DHT22;10780;50.942;4.028;2023-01-24T00:30:11;4.50;99.90
21244;DHT22;10780;50.942;4.028;2023-01-24T00:32:37;4.40;99.90
21244;DHT22;10780;50.942;4.028;2023-01-24T00:35:02;4.30;99.90
21244;DHT22;10780;50.942;4.028;2023-01-24T00:37:28;4.30;99.90
21244;DHT22;10780;50.942;4.028;2023-01-24T00:39:54;4.30;99.90
21244;DHT22;10780;50.942;4.028;2023-01-24T00:42:19;4.30;99.90
21244;DHT22;10780;50.942;4.028;2023-01-24T00:44:45;4.30;99.90
21244;DHT22;10780;50.942;4.028;2023-01-24T00:47:11;4.30;99.90
21244;DHT22;10780;50.942;4.028;2023-01-24T00:49:36;4.20;99.90
21244;DHT22;10780;50.942;4.028;2023-01-24T00:52:02;4.10;99.90
21244;DHT22;10780;50.942;4.028;2023-01-24T00:54:28;4.10;99.90
21244;DHT22;10780;50.942;4.028;2023-01-24T00:56:53;4.20;99.90
21244;DHT22;10780;50.942;4.028;2023-01-24T00:59:19;4.30;99.90
21244;DHT22;10780;50.942;4.028;2023-01-24T01:01:45;4.30;99.90
21244;DHT22;10780;50.942;4.028;2023-01-24T01:04:10;4.30;99.90
21244;DHT22;10780;50.942;4.028;2023-01-24T01:06:36;4.20;99.90
21244;DHT22;10780;50.942;4.028;2023-01-24T01:09:02;4.40;99.90
21244;DHT22;10780;50.942;4.028;2023-01-24T01:11:28;4.50;99.90
21244;DHT22;10780;50.942;4.028;2023-01-24T01:13:54;4.40;99.90
21244;DHT22;10780;50.942;4.028;2023-01-24T01:16:20;4.30;99.90
21244;DHT22;10780;50.942;4.028;2023-01-24T01:18:47;4.10;99.90
21244;DHT22;10780;50.942;4.028;2023-01-24T01:21:15;4.10;99.90
21244;DHT22;10780;50.942;4.028;2023-01-24T01:23:42;4.20;99.90
21244;DHT22;10780;50.942;4.028;2023-01-24T01:26:10;4.30;99.90
21244;DHT22;10780;50.942;4.028;2023-01-24T01:28:38;4.10;99.90
21244;DHT22;10780;50.942;4.028;2023-01-24T01:31:04;4.20;99.90
21244;DHT22;10780;50.942;4.028;2023-01-24T01:33:29;4.20;99.90
21244;DHT22;10780;50.942;4.028;2023-01-24T01:35:55;4.30;99.90
21244;DHT22;10780;50.942;4.028;2023-01-24T01:38:21;4.30;99.90
21244;DHT22;10780;50.942;4.028;2023-01-24T01:40:49;4.30;99.90
21244;DHT22;10780;50.942;4.028;2023-01-24T01:43:18;4.40;99.90
21244;DHT22;10780;50.942;4.028;2023-01-24T01:45:48;4.20;99.90
21244;DHT22;10780;50.942;4.028;2023-01-24T01:53:28;4.40;99.90
21244;DHT22;10780;50.942;4.028;2023-01-24T01:56:00;4.30;99.90
21244;DHT22;10780;50.942;4.028;2023-01-24T01:58:27;4.20;99.90
21244;DHT22;10780;50.942;4.028;2023-01-24T02:00:53;4.20;99.90
21244;DHT22;10780;50.942;4.028;2023-01-24T02:03:29;4.20;99.90
21244;DHT22;10780;50.942;4.028;2023-01-24T02:06:11;4.20;99.90
21244;DHT22;10780;50.942;4.028;2023-01-24T02:08:40;4.20;99.90
21244;DHT22;10780;50.942;4.028;2023-01-24T02:11:07;4.10;99.90
21244;DHT22;10780;50.942;4.028;2023-01-24T02:13:52;4.20;99.90
21244;DHT22;10780;50.942;4.028;2023-01-24T02:16:38;4.20;99.90
21244;DHT22;10780;50.942;4.028;2023-01-24T02:19:06;4.30;99.90
21244;DHT22;10780;50.942;4.028;2023-01-24T02:21:32;4.40;99.90
21244;DHT22;10780;50.942;4.028;2023-01-24T02:24:19;4.30;99.90
21244;DHT22;10780;50.942;4.028;2023-01-24T02:26:46;4.30;99.90
21244;DHT22;10780;50.942;4.028;2023-01-24T02:29:14;4.20;99.90
21244;DHT22;10780;50.942;4.028;2023-01-24T02:32:10;4.30;99.90
21244;DHT22;10780;50.942;4.028;2023-01-24T02:34:38;4.30;99.90
21244;DHT22;10780;50.942;4.028;2023-01-24T02:37:06;4.30;99.90
21244;DHT22;10780;50.942;4.028;2023-01-24T02:42:13;4.00;99.90
21244;DHT22;10780;50.942;4.028;2023-01-24T02:47:23;4.20;99.90
21244;DHT22;10780;50.942;4.028;2023-01-24T02:49:51;4.30;99.90
21244;DHT22;10780;50.942;4.028;2023-01-24T02:52:17;4.20;99.90
21244;DHT22;10780;50.942;4.028;2023-01-24T02:55:01;4.30;99.90
21244;DHT22;10780;50.942;4.028;2023-01-24T02:57:26;4.50;99.90
21244;DHT22;10780;50.942;4.028;2023-01-24T03:00:11;4.50;99.90
21244;DHT22;10780;50.942;4.028;2023-01-24T03:02:37;4.60;99.90
21244;DHT22;10780;50.942;4.028;2023-01-24T03:05:03;4.50;99.90
21244;DHT22;10780;50.942;4.028;2023-01-24T03:07:29;4.40;99.90
21244;DHT22;10780;50.942;4.028;2023-01-24T03:10:09;4.50;99.90
21244;DHT22;10780;50.942;4.028;2023-01-24T03:12:35;4.40;99.90
21244;DHT22;10780;50.942;4.028;2023-01-24T03:15:19;4.40;99.90
21244;DHT22;10780;50.942;4.028;2023-01-24T03:18:03;4.40;99.90
21244;DHT22;10780;50.942;4.028;2023-01-24T03:20:48;4.40;99.90
21244;DHT22;10780;50.942;4.028;2023-01-24T03:23:32;4.50;99.90
21244;DHT22;10780;50.942;4.028;2023-01-24T03:26:16;4.40;99.90
21244;DHT22;10780;50.942;4.028;2023-01-24T03:29:00;4.40;99.90
21244;DHT22;10780;50.942;4.028;2023-01-24T03:31:44;4.30;99.90
21244;DHT22;10780;50.942;4.028;2023-01-24T03:34:28;4.20;99.90
21244;DHT22;10780;50.942;4.028;2023-01-24T03:37:01;4.20;99.90
21244;DHT22;10780;50.942;4.028;2023-01-24T03:39:27;4.30;99.90
21244;DHT22;10780;50.942;4.028;2023-01-24T03:42:11;4.30;99.90
21244;DHT22;10780;50.942;4.028;2023-01-24T03:44:36;4.10;99.90
21244;DHT22;10780;50.942;4.028;2023-01-24T03:47:02;4.20;99.90
21244;DHT22;10780;50.942;4.028;2023-01-24T03:49:28;4.30;99.90
21244;DHT22;10780;50.942;4.028;2023-01-24T03:52:12;4.40;99.90
21244;DHT22;10780;50.942;4.028;2023-01-24T03:54:56;4.10;99.90
21244;DHT22;10780;50.942;4.028;2023-01-24T03:57:22;4.10;99.90
21244;DHT22;10780;50.942;4.028;2023-01-24T03:59:48;4.10;99.90
21244;DHT22;10780;50.942;4.028;2023-01-24T04:02:15;4.00;99.90
21244;DHT22;10780;50.942;4.028;2023-01-24T04:04:41;4.00;99.90
21244;DHT22;10780;50.942;4.028;2023-01-24T04:07:26;4.20;99.90
21244;DHT22;10780;50.942;4.028;2023-01-24T04:09:52;4.20;99.90
21244;DHT22;10780;50.942;4.028;2023-01-24T04:12:17;4.30;99.90
21244;DHT22;10780;50.942;4.028;2023-01-24T04:14:43;4.50;99.90
21244;DHT22;10780;50.942;4.028;2023-01-24T04:17:09;4.50;99.90
21244;DHT22;10780;50.942;4.028;2023-01-24T04:19:35;4.50;99.90
21244;DHT22;10780;50.942;4.028;2023-01-24T04:22:00;4.40;99.90
21244;DHT22;10780;50.942;4.028;2023-01-24T04:24:26;4.30;99.90
21244;DHT22;10780;50.942;4.028;2023-01-24T04:26:51;4.30;99.90
21244;DHT22;10780;50.942;4.028;2023-01-24T04:29:17;4.30;99.90
21244;DHT22;10780;50.942;4.028;2023-01-24T04:31:43;4.20;99.90
21244;DHT22;10780;50.942;4.028;2023-01-24T04:34:08;4.20;99.90
21244;DHT22;10780;50.942;4.028;2023-01-24T04:36:34;4.20;99.90
21244;DHT22;10780;50.942;4.028;2023-01-24T04:38:59;4.20;99.90
21244;DHT22;10780;50.942;4.028;2023-01-24T04:41:25;4.30;99.90
21244;DHT22;10780;50.942;4.028;2023-01-24T04:43:51;4.50;99.90
21244;DHT22;10780;50.942;4.028;2023-01-24T04:46:17;4.50;99.90
21244;DHT22;10780;50.942;4.028;2023-01-24T04:48:42;4.40;99.90
21244;DHT22;10780;50.942;4.028;2023-01-24T04:51:08;4.50;99.90
21244;DHT22;10780;50.942;4.028;2023-01-24T04:53:38;4.60;99.90
21244;DHT22;10780;50.942;4.028;2023-01-24T04:56:04;4.60;99.90
21244;DHT22;10780;50.942;4.028;2023-01-24T04:58:30;4.60;99.90
21244;DHT22;10780;50.942;4.028;2023-01-24T05:00:56;4.50;99.90
21244;DHT22;10780;50.942;4.028;2023-01-24T05:03:22;4.50;99.90
21244;DHT22;10780;50.942;4.028;2023-01-24T05:05:51;4.40;99.90
21244;DHT22;10780;50.942;4.028;2023-01-24T05:08:17;4.20;99.90
21244;DHT22;10780;50.942;4.028;2023-01-24T05:10:43;4.40;99.90
21244;DHT22;10780;50.942;4.028;2023-01-24T05:13:09;4.40;99.90
21244;DHT22;10780;50.942;4.028;2023-01-24T05:15:35;4.50;99.90
21244;DHT22;10780;50.942;4.028;2023-01-24T05:18:01;4.60;99.90
21244;DHT22;10780;50.942;4.028;2023-01-24T05:20:27;4.70;99.90
21244;DHT22;10780;50.942;4.028;2023-01-24T05:22:55;4.70;99.90
21244;DHT22;10780;50.942;4.028;2023-01-24T05:25:21;4.70;99.90
21244;DHT22;10780;50.942;4.028;2023-01-24T05:27:46;4.60;99.90
21244;DHT22;10780;50.942;4.028;2023-01-24T05:30:12;4.60;99.90
21244;DHT22;10780;50.942;4.028;2023-01-24T05:32:38;4.70;99.90
21244;DHT22;10780;50.942;4.028;2023-01-24T05:35:04;4.60;99.90
21244;DHT22;10780;50.942;4.028;2023-01-24T05:37:30;4.50;99.90
21244;DHT22;10780;50.942;4.028;2023-01-24T05:39:56;4.30;99.90
21244;DHT22;10780;50.942;4.028;2023-01-24T05:42:21;4.20;99.90
21244;DHT22;10780;50.942;4.028;2023-01-24T05:44:47;4.20;99.90
21244;DHT22;10780;50.942;4.028;2023-01-24T05:47:13;4.10;99.90
21244;DHT22;10780;50.942;4.028;2023-01-24T05:49:38;4.10;99.90
21244;DHT22;10780;50.942;4.028;2023-01-24T05:52:04;4.20;99.90
21244;DHT22;10780;50.942;4.028;2023-01-24T05:54:30;4.20;99.90
21244;DHT22;10780;50.942;4.028;2023-01-24T05:56:55;4.20;99.90
21244;DHT22;10780;50.942;4.028;2023-01-24T05:59:21;4.00;99.90
21244;DHT22;10780;50.942;4.028;2023-01-24T06:01:47;4.00;99.90
21244;DHT22;10780;50.942;4.028;2023-01-24T06:04:12;3.90;99.90
21244;DHT22;10780;50.942;4.028;2023-01-24T06:06:38;4.00;99.90
21244;DHT22;10780;50.942;4.028;2023-01-24T06:09:03;3.90;99.90
21244;DHT22;10780;50.942;4.028;2023-01-24T06:11:29;3.90;99.90
21244;DHT22;10780;50.942;4.028;2023-01-24T06:13:57;3.90;99.90
21244;DHT22;10780;50.942;4.028;2023-01-24T06:16:24;3.90;99.90
21244;DHT22;10780;50.942;4.028;2023-01-24T06:18:52;3.90;99.90
21244;DHT22;10780;50.942;4.028;2023-01-24T06:21:28;4.10;99.90
21244;DHT22;10780;50.942;4.028;2023-01-24T06:24:00;3.90;99.90
21244;DHT22;10780;50.942;4.028;2023-01-24T06:26:26;4.00;99.90
21244;DHT22;10780;50.942;4.028;2023-01-24T06:28:52;4.20;99.90
21244;DHT22;10780;50.942;4.028;2023-01-24T06:37:28;4.20;99.90
21244;DHT22;10780;50.942;4.028;2023-01-24T06:39:58;4.10;99.90
21244;DHT22;10780;50.942;4.028;2023-01-24T06:42:24;4.20;99.90
21244;DHT22;10780;50.942;4.028;2023-01-24T06:44:50;4.20;99.90
21244;DHT22;10780;50.942;4.028;2023-01-24T06:47:16;4.20;99.90
21244;DHT22;10780;50.942;4.028;2023-01-24T06:49:42;4.10;99.90
21244;DHT22;10780;50.942;4.028;2023-01-24T06:52:08;4.10;99.90
21244;DHT22;10780;50.942;4.028;2023-01-24T06:54:35;4.10;99.90
21244;DHT22;10780;50.942;4.028;2023-01-24T06:57:01;4.00;99.90
21244;DHT22;10780;50.942;4.028;2023-01-24T06:59:27;4.20;99.90
21244;DHT22;10780;50.942;4.028;2023-01-24T07:01:52;4.30;99.90
21244;DHT22;10780;50.942;4.028;2023-01-24T07:04:18;4.20;99.90
21244;DHT22;10780;50.942;4.028;2023-01-24T07:06:44;4.30;99.90
21244;DHT22;10780;50.942;4.028;2023-01-24T07:09:10;4.40;99.90
21244;DHT22;10780;50.942;4.028;2023-01-24T07:11:36;4.40;99.90
21244;DHT22;10780;50.942;4.028;2023-01-24T07:14:02;4.30;99.90
21244;DHT22;10780;50.942;4.028;2023-01-24T07:16:28;4.30;99.90
21244;DHT22;10780;50.942;4.028;2023-01-24T07:18:54;4.20;99.90
21244;DHT22;10780;50.942;4.028;2023-01-24T07:21:20;4.10;99.90
21244;DHT22;10780;50.942;4.028;2023-01-24T07:23:47;4.20;99.90
21244;DHT22;10780;50.942;4.028;2023-01-24T07:26:17;4.30;99.90
21244;DHT22;10780;50.942;4.028;2023-01-24T07:29:03;4.30;99.90
21244;DHT22;10780;50.942;4.028;2023-01-24T07:31:33;4.40;99.90
21244;DHT22;10780;50.942;4.028;2023-01-24T07:33:59;4.30;99.90
21244;DHT22;10780;50.942;4.028;2023-01-24T07:36:28;4.30;99.90
21244;DHT22;10780;50.942;4.028;2023-01-24T07:38:57;4.30;99.90
21244;DHT22;10780;50.942;4.028;2023-01-24T07:41:24;4.30;99.90
21244;DHT22;10780;50.942;4.028;2023-01-24T07:43:50;4.40;99.90
21244;DHT22;10780;50.942;4.028;2023-01-24T07:46:16;4.30;99.90
21244;DHT22;10780;50.942;4.028;2023-01-24T07:48:42;4.30;99.90
21244;DHT22;10780;50.942;4.028;2023-01-24T07:51:08;4.40;99.90
21244;DHT22;10780;50.942;4.028;2023-01-24T07:53:35;4.40;99.90
21244;DHT22;10780;50.942;4.028;2023-01-24T07:56:01;4.30;99.90
21244;DHT22;10780;50.942;4.028;2023-01-24T07:58:28;4.30;99.90
21244;DHT22;10780;50.942;4.028;2023-01-24T08:00:55;4.40;99.90
21244;DHT22;10780;50.942;4.028;2023-01-24T08:03:21;4.50;99.90
21244;DHT22;10780;50.942;4.028;2023-01-24T08:05:47;4.50;99.90
21244;DHT22;10780;50.942;4.028;2023-01-24T08:08:12;4.40;99.90
21244;DHT22;10780;50.942;4.028;2023-01-24T08:10:38;4.40;99.90
21244;DHT22;10780;50.942;4.028;2023-01-24T08:13:04;4.40;99.90
21244;DHT22;10780;50.942;4.028;2023-01-24T08:15:30;4.50;99.90
21244;DHT22;10780;50.942;4.028;2023-01-24T08:17:55;4.60;99.90
21244;DHT22;10780;50.942;4.028;2023-01-24T08:20:21;4.40;99.90
21244;DHT22;10780;50.942;4.028;2023-01-24T08:22:47;4.30;99.90
21244;DHT22;10780;50.942;4.028;2023-01-24T08:25:13;4.40;99.90
21244;DHT22;10780;50.942;4.028;2023-01-24T08:27:42;4.40;99.90
21244;DHT22;10780;50.942;4.028;2023-01-24T08:30:10;4.30;99.90
21244;DHT22;10780;50.942;4.028;2023-01-24T08:32:37;4.20;99.90
21244;DHT22;10780;50.942;4.028;2023-01-24T08:35:07;4.10;99.90
21244;DHT22;10780;50.942;4.028;2023-01-24T08:37:33;4.00;99.90
21244;DHT22;10780;50.942;4.028;2023-01-24T08:40:00;4.00;99.90
21244;DHT22;10780;50.942;4.028;2023-01-24T08:42:26;4.00;99.90
21244;DHT22;10780;50.942;4.028;2023-01-24T08:44:53;4.20;99.90
21244;DHT22;10780;50.942;4.028;2023-01-24T08:47:22;4.00;99.90
21244;DHT22;10780;50.942;4.028;2023-01-24T08:49:48;4.10;99.90
21244;DHT22;10780;50.942;4.028;2023-01-24T08:52:15;4.00;99.90
21244;DHT22;10780;50.942;4.028;2023-01-24T08:54:41;4.00;99.90
21244;DHT22;10780;50.942;4.028;2023-01-24T08:57:07;4.10;99.90
21244;DHT22;10780;50.942;4.028;2023-01-24T08:59:33;4.30;99.90
21244;DHT22;10780;50.942;4.028;2023-01-24T09:02:00;4.50;99.90
21244;DHT22;10780;50.942;4.028;2023-01-24T09:04:26;4.50;99.90
21244;DHT22;10780;50.942;4.028;2023-01-24T09:06:53;4.40;99.90
21244;DHT22;10780;50.942;4.028;2023-01-24T09:09:19;4.40;99.90
21244;DHT22;10780;50.942;4.028;2023-01-24T09:11:46;4.40;99.90
21244;DHT22;10780;50.942;4.028;2023-01-24T09:14:12;4.50;99.90
21244;DHT22;10780;50.942;4.028;2023-01-24T09:16:39;4.50;99.90
21244;DHT22;10780;50.942;4.028;2023-01-24T09:19:06;4.60;99.90
21244;DHT22;10780;50.942;4.028;2023-01-24T09:21:33;4.60;99.90
21244;DHT22;10780;50.942;4.028;2023-01-24T09:24:25;4.50;99.90
21244;DHT22;10780;50.942;4.028;2023-01-24T09:26:53;4.60;99.90
21244;DHT22;10780;50.942;4.028;2023-01-24T09:29:20;4.60;99.90
21244;DHT22;10780;50.942;4.028;2023-01-24T09:31:48;4.70;99.90
21244;DHT22;10780;50.942;4.028;2023-01-24T09:34:14;4.60;99.90
21244;DHT22;10780;50.942;4.028;2023-01-24T09:36:41;4.50;99.90
21244;DHT22;10780;50.942;4.028;2023-01-24T09:39:07;4.50;99.90
21244;DHT22;10780;50.942;4.028;2023-01-24T09:41:58;4.50;99.90
21244;DHT22;10780;50.942;4.028;2023-01-24T09:44:36;4.40;99.90
21244;DHT22;10780;50.942;4.028;2023-01-24T09:47:18;4.50;99.90
21244;DHT22;10780;50.942;4.028;2023-01-24T09:49:50;4.60;99.90
21244;DHT22;10780;50.942;4.028;2023-01-24T09:52:45;4.70;99.90
21244;DHT22;10780;50.942;4.028;2023-01-24T10:00:28;4.80;99.90
21244;DHT22;10780;50.942;4.028;2023-01-24T10:03:02;4.80;99.90
21244;DHT22;10780;50.942;4.028;2023-01-24T10:05:38;4.80;99.90
21244;DHT22;10780;50.942;4.028;2023-01-24T10:22:26;5.10;99.90
21244;DHT22;10780;50.942;4.028;2023-01-24T10:25:07;5.10;99.90
21244;DHT22;10780;50.942;4.028;2023-01-24T10:27:39;5.00;99.90
21244;DHT22;10780;50.942;4.028;2023-01-24T10:30:21;5.20;99.90
21244;DHT22;10780;50.942;4.028;2023-01-24T10:32:52;4.90;99.90
21244;DHT22;10780;50.942;4.028;2023-01-24T10:35:25;4.90;99.90
21244;DHT22;10780;50.942;4.028;2023-01-24T10:37:56;5.00;99.90
21244;DHT22;10780;50.942;4.028;2023-01-24T10:40:26;5.10;99.90
21244;DHT22;10780;50.942;4.028;2023-01-24T10:42:52;5.10;99.90
21244;DHT22;10780;50.942;4.028;2023-01-24T10:50:44;5.30;99.90
21244;DHT22;10780;50.942;4.028;2023-01-24T10:53:23;5.50;99.90
21244;DHT22;10780;50.942;4.028;2023-01-24T10:56:05;5.50;99.90
21244;DHT22;10780;50.942;4.028;2023-01-24T10:58:42;5.60;99.90
21244;DHT22;10780;50.942;4.028;2023-01-24T11:01:19;5.70;99.90
21244;DHT22;10780;50.942;4.028;2023-01-24T11:03:48;5.50;99.90
21244;DHT22;10780;50.942;4.028;2023-01-24T11:09:00;5.40;99.90
21244;DHT22;10780;50.942;4.028;2023-01-24T11:11:30;5.40;99.90
21244;DHT22;10780;50.942;4.028;2023-01-24T11:13:59;5.30;99.90
21244;DHT22;10780;50.942;4.028;2023-01-24T11:16:46;5.20;99.90
21244;DHT22;10780;50.942;4.028;2023-01-24T11:19:35;5.10;99.90
21244;DHT22;10780;50.942;4.028;2023-01-24T11:22:26;5.10;99.90
21244;DHT22;10780;50.942;4.028;2023-01-24T11:25:01;5.20;99.90
21244;DHT22;10780;50.942;4.028;2023-01-24T11:27:28;5.30;99.90
21244;DHT22;10780;50.942;4.028;2023-01-24T11:30:21;5.30;99.90
21244;DHT22;10780;50.942;4.028;2023-01-24T11:33:11;5.20;99.90
21244;DHT22;10780;50.942;4.028;2023-01-24T11:35:46;5.20;99.90
21244;DHT22;10780;50.942;4.028;2023-01-24T11:55:11;5.10;99.90
21244;DHT22;10780;50.942;4.028;2023-01-24T11:57:55;5.20;99.90
21244;DHT22;10780;50.942;4.028;2023-01-24T12:00:33;5.40;99.90
21244;DHT22;10780;50.942;4.028;2023-01-24T12:09:20;5.50;99.90
21244;DHT22;10780;50.942;4.028;2023-01-24T12:12:03;5.50;99.90
21244;DHT22;10780;50.942;4.028;2023-01-24T12:18:05;5.20;99.90
21244;DHT22;10780;50.942;4.028;2023-01-24T12:20:57;5.10;99.90
21244;DHT22;10780;50.942;4.028;2023-01-24T12:26:19;5.00;99.90
21244;DHT22;10780;50.942;4.028;2023-01-24T12:51:09;5.60;99.90
21244;DHT22;10780;50.942;4.028;2023-01-24T12:58:59;5.40;99.90
21244;DHT22;10780;50.942;4.028;2023-01-24T13:12:24;5.70;99.90
21244;DHT22;10780;50.942;4.028;2023-01-24T13:15:00;5.80;99.90
21244;DHT22;10780;50.942;4.028;2023-01-24T13:20:51;5.90;99.90
21244;DHT22;10780;50.942;4.028;2023-01-24T13:31:33;6.10;99.90
21244;DHT22;10780;50.942;4.028;2023-01-24T13:34:04;6.00;99.90
21244;DHT22;10780;50.942;4.028;2023-01-24T13:36:39;5.80;99.90
21244;DHT22;10780;50.942;4.028;2023-01-24T13:39:06;5.90;99.90
21244;DHT22;10780;50.942;4.028;2023-01-24T13:42:00;5.90;99.90
21244;DHT22;10780;50.942;4.028;2023-01-24T13:44:29;6.00;99.90
21244;DHT22;10780;50.942;4.028;2023-01-24T14:03:29;6.10;99.90
21244;DHT22;10780;50.942;4.028;2023-01-24T14:27:37;6.20;99.90
21244;DHT22;10780;50.942;4.028;2023-01-24T14:32:55;6.20;99.90
21244;DHT22;10780;50.942;4.028;2023-01-24T14:35:29;6.10;99.90
21244;DHT22;10780;50.942;4.028;2023-01-24T14:38:17;5.90;99.90
21244;DHT22;10780;50.942;4.028;2023-01-24T14:40:50;5.70;99.90
21244;DHT22;10780;50.942;4.028;2023-01-24T14:43:17;5.80;99.90
21244;DHT22;10780;50.942;4.028;2023-01-24T14:45:43;5.70;99.90
21244;DHT22;10780;50.942;4.028;2023-01-24T14:48:15;5.60;99.90
21244;DHT22;10780;50.942;4.028;2023-01-24T14:50:41;5.50;99.90
21244;DHT22;10780;50.942;4.028;2023-01-24T14:53:27;5.50;99.90
21244;DHT22;10780;50.942;4.028;2023-01-24T14:55:55;5.60;99.90
21244;DHT22;10780;50.942;4.028;2023-01-24T14:58:40;5.60;99.90
21244;DHT22;10780;50.942;4.028;2023-01-24T15:01:31;5.60;99.90
21244;DHT22;10780;50.942;4.028;2023-01-24T15:03:59;5.50;99.90
21244;DHT22;10780;50.942;4.028;2023-01-24T15:06:26;5.60;99.90
21244;DHT22;10780;50.942;4.028;2023-01-24T15:09:02;5.50;99.90
21244;DHT22;10780;50.942;4.028;2023-01-24T15:14:01;5.40;99.90
21244;DHT22;10780;50.942;4.028;2023-01-24T15:16:38;5.30;99.90
21244;DHT22;10780;50.942;4.028;2023-01-24T15:19:35;5.30;99.90
21244;DHT22;10780;50.942;4.028;2023-01-24T15:22:01;5.30;99.90
21244;DHT22;10780;50.942;4.028;2023-01-24T15:24:29;5.10;99.90
21244;DHT22;10780;50.942;4.028;2023-01-24T15:26:56;4.90;99.90
21244;DHT22;10780;50.942;4.028;2023-01-24T15:30:04;4.80;99.90
21244;DHT22;10780;50.942;4.028;2023-01-24T15:35:20;4.70;99.90
21244;DHT22;10780;50.942;4.028;2023-01-24T15:38:12;4.80;99.90
21244;DHT22;10780;50.942;4.028;2023-01-24T15:43:49;5.00;99.90
21244;DHT22;10780;50.942;4.028;2023-01-24T15:46:22;5.00;99.90
21244;DHT22;10780;50.942;4.028;2023-01-24T15:51:40;5.00;99.90
21244;DHT22;10780;50.942;4.028;2023-01-24T15:54:13;4.90;99.90
21244;DHT22;10780;50.942;4.028;2023-01-24T15:56:41;5.00;99.90
21244;DHT22;10780;50.942;4.028;2023-01-24T15:59:17;5.00;99.90
21244;DHT22;10780;50.942;4.028;2023-01-24T16:01:43;4.90;99.90
21244;DHT22;10780;50.942;4.028;2023-01-24T16:04:13;5.20;99.90
21244;DHT22;10780;50.942;4.028;2023-01-24T16:06:40;4.90;99.90
21244;DHT22;10780;50.942;4.028;2023-01-24T16:09:06;5.00;99.90
21244;DHT22;10780;50.942;4.028;2023-01-24T16:11:32;4.80;99.90
21244;DHT22;10780;50.942;4.028;2023-01-24T16:13:58;5.00;99.90
21244;DHT22;10780;50.942;4.028;2023-01-24T16:16:24;4.80;99.90
21244;DHT22;10780;50.942;4.028;2023-01-24T16:18:49;4.90;99.90
21244;DHT22;10780;50.942;4.028;2023-01-24T16:21:15;5.10;99.90
21244;DHT22;10780;50.942;4.028;2023-01-24T16:23:41;5.00;99.90
21244;DHT22;10780;50.942;4.028;2023-01-24T16:26:23;5.00;99.90
21244;DHT22;10780;50.942;4.028;2023-01-24T16:28:50;4.90;99.90
21244;DHT22;10780;50.942;4.028;2023-01-24T16:31:16;4.60;99.90
21244;DHT22;10780;50.942;4.028;2023-01-24T16:33:42;4.40;99.90
21244;DHT22;10780;50.942;4.028;2023-01-24T16:36:11;4.50;99.90
21244;DHT22;10780;50.942;4.028;2023-01-24T16:38:37;4.50;99.90
21244;DHT22;10780;50.942;4.028;2023-01-24T16:41:03;4.50;99.90
21244;DHT22;10780;50.942;4.028;2023-01-24T16:43:29;4.50;99.90
21244;DHT22;10780;50.942;4.028;2023-01-24T16:45:55;4.60;99.90
21244;DHT22;10780;50.942;4.028;2023-01-24T16:48:20;4.70;99.90
21244;DHT22;10780;50.942;4.028;2023-01-24T16:50:46;4.70;99.90
21244;DHT22;10780;50.942;4.028;2023-01-24T16:53:13;4.60;99.90
21244;DHT22;10780;50.942;4.028;2023-01-24T16:55:39;4.60;99.90
21244;DHT22;10780;50.942;4.028;2023-01-24T16:58:09;4.70;99.90
21244;DHT22;10780;50.942;4.028;2023-01-24T17:00:36;4.80;99.90
21244;DHT22;10780;50.942;4.028;2023-01-24T17:03:02;4.70;99.90
21244;DHT22;10780;50.942;4.028;2023-01-24T17:05:29;4.70;99.90
21244;DHT22;10780;50.942;4.028;2023-01-24T17:07:56;4.80;99.90
21244;DHT22;10780;50.942;4.028;2023-01-24T17:10:23;4.80;99.90
21244;DHT22;10780;50.942;4.028;2023-01-24T17:12:49;4.90;99.90
21244;DHT22;10780;50.942;4.028;2023-01-24T17:15:15;4.80;99.90
21244;DHT22;10780;50.942;4.028;2023-01-24T17:17:41;4.80;99.90
21244;DHT22;10780;50.942;4.028;2023-01-24T17:20:09;4.80;99.90
21244;DHT22;10780;50.942;4.028;2023-01-24T17:22:35;4.60;99.90
21244;DHT22;10780;50.942;4.028;2023-01-24T17:25:02;4.50;99.90
21244;DHT22;10780;50.942;4.028;2023-01-24T17:27:28;4.50;99.90
21244;DHT22;10780;50.942;4.028;2023-01-24T17:29:55;4.40;99.90
21244;DHT22;10780;50.942;4.028;2023-01-24T17:32:21;4.40;99.90
21244;DHT22;10780;50.942;4.028;2023-01-24T17:34:47;4.20;99.90
21244;DHT22;10780;50.942;4.028;2023-01-24T17:37:13;4.20;99.90
21244;DHT22;10780;50.942;4.028;2023-01-24T17:39:38;4.10;99.90
21244;DHT22;10780;50.942;4.028;2023-01-24T17:42:04;4.20;99.90
21244;DHT22;10780;50.942;4.028;2023-01-24T17:44:30;4.30;99.90
21244;DHT22;10780;50.942;4.028;2023-01-24T17:46:56;4.40;99.90
21244;DHT22;10780;50.942;4.028;2023-01-24T17:49:22;4.50;99.90
21244;DHT22;10780;50.942;4.028;2023-01-24T17:51:48;4.50;99.90
21244;DHT22;10780;50.942;4.028;2023-01-24T17:54:15;4.60;99.90
21244;DHT22;10780;50.942;4.028;2023-01-24T17:56:41;4.70;99.90
21244;DHT22;10780;50.942;4.028;2023-01-24T17:59:07;4.70;99.90
21244;DHT22;10780;50.942;4.028;2023-01-24T18:01:33;4.70;99.90
21244;DHT22;10780;50.942;4.028;2023-01-24T18:03:59;4.60;99.90
21244;DHT22;10780;50.942;4.028;2023-01-24T18:06:24;4.60;99.90
21244;DHT22;10780;50.942;4.028;2023-01-24T18:08:50;4.30;99.90
21244;DHT22;10780;50.942;4.028;2023-01-24T18:11:18;4.30;99.90
21244;DHT22;10780;50.942;4.028;2023-01-24T18:13:44;4.20;99.90
21244;DHT22;10780;50.942;4.028;2023-01-24T18:16:13;4.30;99.90
21244;DHT22;10780;50.942;4.028;2023-01-24T18:18:39;4.40;99.90
21244;DHT22;10780;50.942;4.028;2023-01-24T18:21:17;4.50;99.90
21244;DHT22;10780;50.942;4.028;2023-01-24T18:24:04;4.40;99.90
21244;DHT22;10780;50.942;4.028;2023-01-24T18:26:30;4.50;99.90
21244;DHT22;10780;50.942;4.028;2023-01-24T18:28:59;4.60;99.90
21244;DHT22;10780;50.942;4.028;2023-01-24T18:31:25;4.80;99.90
21244;DHT22;10780;50.942;4.028;2023-01-24T18:33:57;4.70;99.90
21244;DHT22;10780;50.942;4.028;2023-01-24T18:36:23;4.70;99.90
21244;DHT22;10780;50.942;4.028;2023-01-24T18:38:49;4.60;99.90
21244;DHT22;10780;50.942;4.028;2023-01-24T18:41:15;4.60;99.90
21244;DHT22;10780;50.942;4.028;2023-01-24T18:43:41;4.60;99.90
21244;DHT22;10780;50.942;4.028;2023-01-24T18:46:08;4.50;99.90
21244;DHT22;10780;50.942;4.028;2023-01-24T18:48:35;4.60;99.90
21244;DHT22;10780;50.942;4.028;2023-01-24T18:51:09;4.70;99.90
21244;DHT22;10780;50.942;4.028;2023-01-24T18:53:35;4.50;99.90
21244;DHT22;10780;50.942;4.028;2023-01-24T18:56:02;4.50;99.90